Time;durP1;ratioP1;P1;durP2;ratioP2;P2;SDS_P1;SDS_P2;PMS_P1;PMS_P2;Temp;Humidity;BMP_temperature;BMP_pressure;BME280_temperature;BME280_humidity;BME280_pressure;Samples;Min_cycle;Max_cycle;Signal;HPM_P1;HPM_P2
2022/03/08 00:00:01;;;;;;;10.10;6.63;;;2.20;81.10;;;;;;5048655;28;20498;-68
2022/03/08 00:02:37;;;;;;;10.20;7.00;;;2.20;81.40;;;;;;5049282;28;20232;-66
2022/03/08 00:05:03;;;;;;;7.83;5.93;;;2.20;81.40;;;;;;4997858;28;20459;-67
2022/03/08 00:07:28;;;;;;;13.10;6.47;;;2.10;81.00;;;;;;5003968;28;20217;-66
2022/03/08 00:09:55;;;;;;;10.90;6.13;;;2.10;80.70;;;;;;4999982;28;20229;-67
2022/03/08 00:12:21;;;;;;;8.43;4.90;;;2.10;80.70;;;;;;4992545;28;20279;-70
2022/03/08 00:14:47;;;;;;;8.13;5.57;;;2.10;80.90;;;;;;5023151;28;20451;-67
2022/03/08 00:17:13;;;;;;;10.03;5.17;;;2.10;81.20;;;;;;5026377;28;20462;-68
2022/03/08 00:19:39;;;;;;;10.37;5.30;;;2.00;81.50;;;;;;5015930;28;20248;-66
2022/03/08 00:22:04;;;;;;;9.97;5.60;;;2.00;81.10;;;;;;5037604;28;20232;-67
2022/03/08 00:24:30;;;;;;;7.20;6.10;;;2.00;81.80;;;;;;5015184;28;20233;-67
2022/03/08 00:26:56;;;;;;;8.30;4.87;;;2.00;81.70;;;;;;5037187;28;20251;-67
2022/03/08 00:29:21;;;;;;;10.20;5.80;;;2.00;81.50;;;;;;5029112;28;20760;-68
2022/03/08 00:31:48;;;;;;;12.30;6.10;;;2.00;81.50;;;;;;5014438;28;20243;-67
2022/03/08 00:34:14;;;;;;;10.53;6.37;;;1.90;81.60;;;;;;5012627;28;20460;-67
2022/03/08 00:36:39;;;;;;;7.77;5.53;;;1.90;81.60;;;;;;5031811;28;20539;-68
2022/03/08 00:39:05;;;;;;;7.90;4.80;;;1.90;81.40;;;;;;5015687;28;20228;-68
2022/03/08 00:41:32;;;;;;;9.03;5.20;;;1.90;81.70;;;;;;5015528;28;20231;-67
2022/03/08 00:43:58;;;;;;;9.53;5.37;;;1.90;81.70;;;;;;5019306;28;20529;-67
2022/03/08 00:46:23;;;;;;;9.70;5.30;;;1.90;81.60;;;;;;5008508;28;20225;-68
2022/03/08 00:48:50;;;;;;;6.57;4.73;;;1.90;81.70;;;;;;5038715;28;20209;-67
2022/03/08 00:51:16;;;;;;;9.70;5.00;;;1.90;81.70;;;;;;5024841;28;20263;-67
2022/03/08 00:53:44;;;;;;;10.40;5.07;;;1.80;81.60;;;;;;5038527;28;20546;-69
2022/03/08 00:56:10;;;;;;;11.90;6.67;;;1.80;81.30;;;;;;5015281;28;20534;-67
2022/03/08 00:58:36;;;;;;;8.00;5.00;;;1.70;82.20;;;;;;5032011;28;20217;-67
2022/03/08 01:01:03;;;;;;;6.87;4.97;;;1.70;81.90;;;;;;5032124;28;20785;-68
2022/03/08 01:03:29;;;;;;;6.20;4.83;;;1.70;81.80;;;;;;5046496;28;20519;-70
2022/03/08 01:05:55;;;;;;;6.60;4.20;;;1.70;82.10;;;;;;5032731;28;20466;-67
2022/03/08 01:08:21;;;;;;;5.70;3.97;;;1.70;82.10;;;;;;5021915;28;20451;-67
2022/03/08 01:10:46;;;;;;;6.27;4.80;;;1.70;82.40;;;;;;5019186;28;20263;-67
2022/03/08 01:13:12;;;;;;;12.87;5.50;;;1.70;82.40;;;;;;5033188;28;20269;-68
2022/03/08 01:15:38;;;;;;;6.87;4.30;;;1.70;82.20;;;;;;5037154;28;20263;-67
2022/03/08 01:18:04;;;;;;;8.90;4.87;;;1.60;82.20;;;;;;5015252;28;20217;-66
2022/03/08 01:20:30;;;;;;;10.13;4.80;;;1.60;82.10;;;;;;4998200;28;20545;-66
2022/03/08 01:22:55;;;;;;;9.50;5.17;;;1.60;81.90;;;;;;5013832;28;20510;-67
2022/03/08 01:25:22;;;;;;;6.57;4.93;;;1.60;81.80;;;;;;5024003;28;20220;-66
2022/03/08 01:27:50;;;;;;;7.90;5.80;;;1.60;82.10;;;;;;5020497;28;20229;-68
2022/03/08 01:30:17;;;;;;;10.63;5.13;;;1.50;82.40;;;;;;4995299;28;20465;-68
2022/03/08 01:32:43;;;;;;;8.23;5.20;;;1.50;82.80;;;;;;5005227;28;20491;-67
2022/03/08 01:35:10;;;;;;;10.27;5.27;;;1.50;82.30;;;;;;5043430;28;20489;-67
2022/03/08 01:37:36;;;;;;;14.47;5.13;;;1.50;82.30;;;;;;5031038;28;20243;-67
2022/03/08 01:40:04;;;;;;;9.33;4.43;;;1.50;82.60;;;;;;5032272;28;20542;-67
2022/03/08 01:42:30;;;;;;;7.00;5.10;;;1.50;82.90;;;;;;5013991;28;20550;-68
2022/03/08 01:44:55;;;;;;;6.00;3.97;;;1.50;82.70;;;;;;5027600;28;20538;-67
2022/03/08 01:47:23;;;;;;;9.33;5.30;;;1.50;82.60;;;;;;5022282;28;20649;-67
2022/03/08 01:49:51;;;;;;;10.77;5.50;;;1.50;82.80;;;;;;5013455;28;20459;-68
2022/03/08 01:52:20;;;;;;;11.77;5.03;;;1.50;82.80;;;;;;5014597;28;20475;-66
2022/03/08 01:54:46;;;;;;;8.37;4.87;;;1.50;82.70;;;;;;5012292;28;20484;-67
2022/03/08 01:57:12;;;;;;;7.50;4.57;;;1.40;82.60;;;;;;5024991;28;20508;-66
2022/03/08 01:59:39;;;;;;;8.20;4.63;;;1.40;82.60;;;;;;5033309;28;20258;-67
2022/03/08 02:02:06;;;;;;;7.43;4.60;;;1.40;82.60;;;;;;5015530;28;20479;-67
2022/03/08 02:04:31;;;;;;;8.03;4.47;;;1.40;82.70;;;;;;5030779;28;20471;-68
2022/03/08 02:06:57;;;;;;;10.57;4.20;;;1.40;82.70;;;;;;5014277;28;20459;-67
2022/03/08 02:09:23;;;;;;;7.77;4.93;;;1.40;82.70;;;;;;5015238;28;20287;-67
2022/03/08 02:11:49;;;;;;;7.73;4.37;;;1.30;82.90;;;;;;5013431;28;20255;-67
2022/03/08 02:14:18;;;;;;;6.20;4.50;;;1.30;83.00;;;;;;5031735;28;20600;-67
2022/03/08 02:16:45;;;;;;;8.67;5.03;;;1.30;82.90;;;;;;5031075;28;20999;-66
2022/03/08 02:19:12;;;;;;;6.23;4.50;;;1.30;83.10;;;;;;5031049;28;20459;-67
2022/03/08 02:21:38;;;;;;;9.23;6.67;;;1.30;82.90;;;;;;5033127;28;20561;-67
2022/03/08 02:24:04;;;;;;;8.63;4.30;;;1.20;82.90;;;;;;5039942;28;20597;-67
2022/03/08 02:26:31;;;;;;;7.03;4.30;;;1.10;83.20;;;;;;5027057;28;20471;-68
2022/03/08 02:28:58;;;;;;;11.70;5.10;;;1.10;83.20;;;;;;5008263;28;20809;-67
2022/03/08 02:31:24;;;;;;;8.57;4.77;;;1.10;83.10;;;;;;5013506;28;20455;-68
2022/03/08 02:33:50;;;;;;;10.73;5.90;;;1.10;83.30;;;;;;5030860;28;20554;-67
2022/03/08 02:36:16;;;;;;;14.03;4.60;;;1.10;83.40;;;;;;5010288;28;20491;-67
2022/03/08 02:38:42;;;;;;;8.87;4.60;;;1.10;83.40;;;;;;5004569;28;20594;-68
2022/03/08 02:41:08;;;;;;;7.77;4.17;;;1.10;83.30;;;;;;5011362;28;20225;-67
2022/03/08 02:43:34;;;;;;;9.87;5.00;;;1.10;83.60;;;;;;5005294;28;20221;-67
2022/03/08 02:46:00;;;;;;;7.90;4.50;;;1.10;84.10;;;;;;5032724;28;20447;-67
2022/03/08 02:48:27;;;;;;;5.70;4.53;;;1.10;84.30;;;;;;5013106;28;20216;-68
2022/03/08 02:50:53;;;;;;;7.63;4.10;;;1.10;84.30;;;;;;5012763;28;20235;-67
2022/03/08 02:53:19;;;;;;;6.87;5.10;;;1.10;84.50;;;;;;5030650;28;20538;-66
2022/03/08 02:55:44;;;;;;;6.00;4.80;;;1.10;84.70;;;;;;5011871;28;20443;-67
2022/03/08 02:58:10;;;;;;;7.67;4.33;;;1.10;84.40;;;;;;5029212;28;20224;-67
2022/03/08 03:00:36;;;;;;;15.90;7.70;;;1.00;85.10;;;;;;5030081;28;20216;-67
2022/03/08 03:03:03;;;;;;;12.80;6.50;;;1.00;84.80;;;;;;5030755;28;20482;-68
2022/03/08 03:05:29;;;;;;;6.20;4.33;;;1.00;84.70;;;;;;5044041;28;20259;-67
2022/03/08 03:07:55;;;;;;;9.87;6.27;;;1.00;84.80;;;;;;5012221;28;20484;-67
2022/03/08 03:10:22;;;;;;;7.70;4.80;;;1.00;85.10;;;;;;5016894;28;20681;-67
2022/03/08 03:12:48;;;;;;;7.10;4.27;;;0.90;85.30;;;;;;5010434;28;20545;-67
2022/03/08 03:15:16;;;;;;;5.50;4.27;;;0.90;85.40;;;;;;5015580;28;20459;-66
2022/03/08 03:17:42;;;;;;;6.87;4.37;;;0.90;85.00;;;;;;5026795;28;20454;-67
2022/03/08 03:20:10;;;;;;;5.80;3.33;;;0.90;84.90;;;;;;5028982;28;20472;-67
2022/03/08 03:22:36;;;;;;;8.57;5.87;;;0.90;85.40;;;;;;5041350;28;20463;-67
2022/03/08 03:25:03;;;;;;;4.90;3.47;;;0.90;85.00;;;;;;5039762;28;20567;-66
2022/03/08 03:27:29;;;;;;;14.53;4.53;;;0.90;84.90;;;;;;5020418;28;20464;-66
2022/03/08 03:29:55;;;;;;;6.60;3.33;;;0.90;84.90;;;;;;5046617;28;20457;-67
2022/03/08 03:32:22;;;;;;;7.67;4.37;;;0.90;85.00;;;;;;5049065;28;20227;-67
2022/03/08 03:34:49;;;;;;;8.13;4.67;;;0.90;85.20;;;;;;5031736;28;20224;-66
2022/03/08 03:37:14;;;;;;;5.80;3.90;;;0.90;85.00;;;;;;5028294;28;20450;-67
2022/03/08 03:39:41;;;;;;;8.13;3.57;;;0.90;85.00;;;;;;5017049;28;20966;-67
2022/03/08 03:42:06;;;;;;;5.03;4.17;;;0.80;84.80;;;;;;5014395;28;20220;-66
2022/03/08 03:44:32;;;;;;;5.87;4.27;;;0.80;85.10;;;;;;5011613;28;20873;-68
2022/03/08 03:46:58;;;;;;;9.00;4.37;;;0.80;85.10;;;;;;5034935;28;20231;-67
2022/03/08 03:49:23;;;;;;;9.30;4.60;;;0.80;85.20;;;;;;5029605;28;20303;-67
2022/03/08 03:51:51;;;;;;;5.40;3.20;;;0.80;85.10;;;;;;5030944;28;20231;-67
2022/03/08 03:54:21;;;;;;;6.90;4.43;;;0.80;85.10;;;;;;5006489;28;20228;-67
2022/03/08 03:56:47;;;;;;;7.73;4.50;;;0.80;85.70;;;;;;5012146;28;20469;-66
2022/03/08 03:59:13;;;;;;;6.40;4.93;;;0.70;85.00;;;;;;5028225;28;20474;-67
2022/03/08 04:01:38;;;;;;;5.80;4.60;;;0.80;85.30;;;;;;4987024;28;20463;-68
2022/03/08 04:04:04;;;;;;;8.70;4.67;;;0.80;85.10;;;;;;5009045;28;20247;-67
2022/03/08 04:06:30;;;;;;;6.93;4.07;;;0.70;85.10;;;;;;5008839;28;20217;-67
2022/03/08 04:08:56;;;;;;;6.63;4.17;;;0.70;85.40;;;;;;5011547;28;20223;-68
2022/03/08 04:11:21;;;;;;;10.83;4.20;;;0.70;85.20;;;;;;5046505;28;20612;-67
2022/03/08 04:13:47;;;;;;;7.37;5.03;;;0.70;85.20;;;;;;5031698;28;20227;-67
2022/03/08 04:16:13;;;;;;;5.83;3.93;;;0.60;85.00;;;;;;5049707;28;20285;-67
2022/03/08 04:18:38;;;;;;;9.23;4.17;;;0.60;85.20;;;;;;5012788;28;20221;-67
2022/03/08 04:21:04;;;;;;;8.90;4.93;;;0.60;85.20;;;;;;5011730;28;20224;-66
2022/03/08 04:23:30;;;;;;;8.57;5.20;;;0.60;85.50;;;;;;5037012;28;20350;-66
2022/03/08 04:25:55;;;;;;;10.50;4.57;;;0.60;85.40;;;;;;5012154;28;20221;-67
2022/03/08 04:28:21;;;;;;;5.77;3.90;;;0.60;85.80;;;;;;5033161;28;20223;-67
2022/03/08 04:30:47;;;;;;;5.33;3.77;;;0.60;85.70;;;;;;5049161;28;20231;-68
2022/03/08 04:33:13;;;;;;;6.73;3.90;;;0.60;85.70;;;;;;5047795;28;20446;-67
2022/03/08 04:35:39;;;;;;;7.33;5.20;;;0.50;85.80;;;;;;5011355;28;20228;-67
2022/03/08 04:38:04;;;;;;;11.27;5.60;;;0.50;85.70;;;;;;5038813;28;20216;-67
2022/03/08 04:40:30;;;;;;;5.73;5.03;;;0.50;85.60;;;;;;5011148;28;20228;-67
2022/03/08 04:42:56;;;;;;;8.80;4.80;;;0.50;85.70;;;;;;4995598;28;20279;-66
2022/03/08 04:45:23;;;;;;;5.50;4.20;;;0.50;85.80;;;;;;5031044;28;20455;-67
2022/03/08 04:47:49;;;;;;;7.73;5.00;;;0.50;85.70;;;;;;5036958;28;20339;-67
2022/03/08 04:50:16;;;;;;;6.60;4.37;;;0.50;86.00;;;;;;5041783;28;20478;-66
2022/03/08 04:52:44;;;;;;;6.40;3.90;;;0.50;86.20;;;;;;5029142;28;20463;-67
2022/03/08 04:55:11;;;;;;;10.23;5.33;;;0.40;86.30;;;;;;5011290;28;20470;-67
2022/03/08 04:57:37;;;;;;;7.47;4.30;;;0.40;86.10;;;;;;5025530;28;20451;-66
2022/03/08 05:00:05;;;;;;;8.77;5.60;;;0.40;86.20;;;;;;5011856;28;20878;-67
2022/03/08 05:02:31;;;;;;;5.70;4.37;;;0.40;86.10;;;;;;5011480;28;20252;-66
2022/03/08 05:04:57;;;;;;;4.20;3.67;;;0.40;86.20;;;;;;5024914;28;20552;-67
2022/03/08 05:07:23;;;;;;;6.50;4.50;;;0.40;86.40;;;;;;5042236;28;20228;-67
2022/03/08 05:09:48;;;;;;;6.50;4.57;;;0.40;86.40;;;;;;5032514;28;20380;-68
2022/03/08 05:12:14;;;;;;;9.60;4.40;;;0.40;86.70;;;;;;5052672;28;20289;-68
2022/03/08 05:14:40;;;;;;;6.70;4.93;;;0.40;86.70;;;;;;5034251;28;20235;-67
2022/03/08 05:17:06;;;;;;;8.20;5.23;;;0.30;86.50;;;;;;5034606;28;20707;-67
2022/03/08 05:19:31;;;;;;;9.70;6.23;;;0.30;86.50;;;;;;5038417;28;20224;-67
2022/03/08 05:21:57;;;;;;;9.60;6.30;;;0.30;86.60;;;;;;5030367;28;20244;-68
2022/03/08 05:24:23;;;;;;;13.17;7.77;;;0.30;86.70;;;;;;5018296;28;20224;-66
2022/03/08 05:26:48;;;;;;;12.13;6.53;;;0.30;86.60;;;;;;5018212;28;20258;-68
2022/03/08 05:29:14;;;;;;;13.63;7.63;;;0.30;86.40;;;;;;5013911;28;20754;-66
2022/03/08 05:31:40;;;;;;;11.30;5.90;;;0.30;86.30;;;;;;5030613;28;20213;-67
2022/03/08 05:34:05;;;;;;;6.40;4.30;;;0.20;86.70;;;;;;5029013;28;20240;-68
2022/03/08 05:36:31;;;;;;;7.33;4.63;;;0.20;86.40;;;;;;5030846;28;20220;-67
2022/03/08 05:38:57;;;;;;;7.00;4.80;;;0.20;86.90;;;;;;5010613;28;20328;-68
2022/03/08 05:41:23;;;;;;;7.23;5.37;;;0.20;87.00;;;;;;5004983;28;20547;-67
2022/03/08 05:43:49;;;;;;;7.73;4.47;;;0.20;87.10;;;;;;5003980;28;20228;-67
2022/03/08 05:46:14;;;;;;;7.80;4.57;;;0.10;86.60;;;;;;5026229;28;20217;-66
2022/03/08 05:48:40;;;;;;;6.50;3.80;;;0.10;86.70;;;;;;5006102;28;20212;-70
2022/03/08 05:51:06;;;;;;;4.33;3.43;;;0.10;86.80;;;;;;5024171;28;20221;-69
2022/03/08 05:53:33;;;;;;;8.43;4.53;;;0.10;86.80;;;;;;5023107;28;20674;-69
2022/03/08 05:55:58;;;;;;;5.70;3.60;;;0.10;86.70;;;;;;5025857;28;20462;-70
2022/03/08 05:58:24;;;;;;;3.77;3.37;;;0.10;87.20;;;;;;5028103;28;20296;-70
2022/03/08 06:00:50;;;;;;;4.50;2.93;;;0.10;87.20;;;;;;5008959;28;20221;-70
2022/03/08 06:03:15;;;;;;;6.17;4.50;;;0.10;87.20;;;;;;5026590;28;20216;-68
2022/03/08 06:05:41;;;;;;;8.20;4.60;;;0.10;87.10;;;;;;5022853;28;20232;-69
2022/03/08 06:08:07;;;;;;;4.70;3.33;;;0.10;87.20;;;;;;5026408;28;20234;-70
2022/03/08 06:10:33;;;;;;;4.27;3.30;;;0.10;87.40;;;;;;5028338;28;20221;-69
2022/03/08 06:12:59;;;;;;;4.53;3.27;;;0.10;87.60;;;;;;5040926;28;20247;-70
2022/03/08 06:15:25;;;;;;;4.87;3.70;;;0.10;87.60;;;;;;5033082;28;20489;-68
2022/03/08 06:17:51;;;;;;;6.03;4.57;;;0.00;87.70;;;;;;5050880;28;20833;-69
2022/03/08 06:20:17;;;;;;;8.10;5.70;;;0.00;87.50;;;;;;5040057;28;20463;-70
2022/03/08 06:22:42;;;;;;;5.10;3.47;;;0.00;87.40;;;;;;5012677;28;20533;-69
2022/03/08 06:25:08;;;;;;;5.10;4.07;;;0.00;87.40;;;;;;5031118;28;20263;-67
2022/03/08 06:27:34;;;;;;;5.50;3.70;;;0.00;87.60;;;;;;5032912;28;20216;-65
2022/03/08 06:30:00;;;;;;;4.47;3.43;;;0.00;87.60;;;;;;5009789;28;20661;-67
2022/03/08 06:32:26;;;;;;;5.27;4.30;;;0.00;87.60;;;;;;5019901;28;20232;-68
2022/03/08 06:34:51;;;;;;;6.30;3.70;;;0.00;87.80;;;;;;5028157;28;20452;-69
2022/03/08 06:37:18;;;;;;;5.30;3.00;;;0.00;88.00;;;;;;5015399;28;20896;-69
2022/03/08 06:39:45;;;;;;;6.90;4.93;;;0.00;88.30;;;;;;5020720;28;20207;-71
2022/03/08 06:42:10;;;;;;;12.40;6.63;;;0.00;88.60;;;;;;5026992;28;20487;-69
2022/03/08 06:44:38;;;;;;;8.20;5.50;;;0.00;88.70;;;;;;4992712;28;20960;-70
2022/03/08 06:47:06;;;;;;;13.93;8.33;;;0.00;88.90;;;;;;5001732;28;20341;-70
2022/03/08 06:49:32;;;;;;;22.70;13.27;;;0.00;89.30;;;;;;5022446;28;20543;-69
2022/03/08 06:51:58;;;;;;;16.17;10.47;;;0.00;89.20;;;;;;5019480;28;20563;-70
2022/03/08 06:54:24;;;;;;;15.70;7.60;;;0.00;89.30;;;;;;5005779;28;21100;-69
2022/03/08 06:56:50;;;;;;;16.07;9.83;;;0.00;89.60;;;;;;5043656;28;20223;-70
2022/03/08 06:59:15;;;;;;;13.90;8.20;;;0.00;89.90;;;;;;5032888;28;20703;-70
2022/03/08 07:01:41;;;;;;;10.53;7.60;;;0.10;90.00;;;;;;5049576;28;20230;-69
2022/03/08 07:04:07;;;;;;;11.23;5.93;;;0.10;90.00;;;;;;5025149;28;20639;-68
2022/03/08 07:06:33;;;;;;;9.37;6.40;;;0.10;90.10;;;;;;5031348;28;20216;-68
2022/03/08 07:08:58;;;;;;;10.83;5.50;;;0.10;90.20;;;;;;5025869;28;20302;-68
2022/03/08 07:11:24;;;;;;;8.90;5.87;;;0.10;90.30;;;;;;5021358;28;20229;-69
2022/03/08 07:13:50;;;;;;;7.37;5.90;;;0.10;90.40;;;;;;5022465;28;20352;-69
2022/03/08 07:16:16;;;;;;;7.70;5.13;;;0.20;90.40;;;;;;5025901;28;20480;-70
2022/03/08 07:18:42;;;;;;;8.03;4.60;;;0.20;90.60;;;;;;5010873;28;20228;-68
2022/03/08 07:21:08;;;;;;;8.93;5.00;;;0.20;90.70;;;;;;5008579;28;20474;-69
2022/03/08 07:23:33;;;;;;;5.87;4.50;;;0.20;90.80;;;;;;5011065;28;20212;-67
2022/03/08 07:25:59;;;;;;;7.17;5.23;;;0.30;91.00;;;;;;5003689;28;20300;-69
2022/03/08 07:28:25;;;;;;;9.33;5.70;;;0.30;91.30;;;;;;5025616;28;20316;-68
2022/03/08 07:30:50;;;;;;;7.20;5.10;;;0.40;91.40;;;;;;5003048;28;20232;-68
2022/03/08 07:33:16;;;;;;;7.50;4.93;;;0.40;91.90;;;;;;5020115;28;20221;-68
2022/03/08 07:35:42;;;;;;;11.90;6.20;;;0.50;92.00;;;;;;5018277;28;20299;-68
2022/03/08 07:38:08;;;;;;;11.43;8.33;;;0.50;92.40;;;;;;5028286;28;20632;-68
2022/03/08 07:40:34;;;;;;;17.10;9.83;;;0.60;92.10;;;;;;5024952;28;20212;-69
2022/03/08 07:43:01;;;;;;;14.53;9.37;;;0.60;92.40;;;;;;5006588;28;20464;-68
2022/03/08 07:45:27;;;;;;;13.90;7.47;;;0.70;92.70;;;;;;5018467;28;20311;-69
2022/03/08 07:47:53;;;;;;;9.33;6.47;;;0.70;92.90;;;;;;5008633;28;20471;-70
2022/03/08 07:50:19;;;;;;;6.60;4.43;;;0.80;93.00;;;;;;5005422;28;20732;-69
2022/03/08 07:52:45;;;;;;;14.67;5.43;;;0.90;93.30;;;;;;5007344;28;20228;-68
2022/03/08 07:55:10;;;;;;;6.70;4.33;;;1.00;93.20;;;;;;4999920;28;20236;-69
2022/03/08 07:57:36;;;;;;;9.67;5.10;;;1.10;93.40;;;;;;5024041;28;20281;-68
2022/03/08 08:00:05;;;;;;;6.43;4.40;;;1.10;93.50;;;;;;5020933;28;20232;-70
2022/03/08 08:02:30;;;;;;;6.57;3.87;;;1.20;93.50;;;;;;5006351;28;20253;-68
2022/03/08 08:04:56;;;;;;;8.87;4.57;;;1.20;93.60;;;;;;5017290;28;20488;-68
2022/03/08 08:07:22;;;;;;;4.67;4.17;;;1.30;93.50;;;;;;5008638;28;20209;-69
2022/03/08 08:09:48;;;;;;;6.47;3.87;;;1.40;93.70;;;;;;5014026;28;20281;-69
2022/03/08 08:12:13;;;;;;;4.57;4.17;;;1.40;93.60;;;;;;5024394;28;20232;-69
2022/03/08 08:14:39;;;;;;;7.70;5.17;;;1.50;93.80;;;;;;5021400;28;20458;-69
2022/03/08 08:17:05;;;;;;;6.60;5.03;;;1.50;93.70;;;;;;5019776;28;20588;-68
2022/03/08 08:19:31;;;;;;;6.83;4.60;;;1.60;93.60;;;;;;5018061;28;20224;-68
2022/03/08 08:21:57;;;;;;;10.23;5.13;;;1.70;93.80;;;;;;5026871;28;20895;-68
2022/03/08 08:24:23;;;;;;;6.17;4.97;;;1.80;93.70;;;;;;5006336;28;20455;-69
2022/03/08 08:26:49;;;;;;;13.83;5.70;;;1.80;93.70;;;;;;5003311;28;20648;-68
2022/03/08 08:29:14;;;;;;;6.83;4.40;;;1.90;93.60;;;;;;5004882;28;20802;-70
2022/03/08 08:31:40;;;;;;;7.27;5.13;;;2.00;93.70;;;;;;5004683;28;20220;-69
2022/03/08 08:34:06;;;;;;;10.97;6.30;;;2.00;93.60;;;;;;5022926;28;20229;-68
2022/03/08 08:36:32;;;;;;;13.47;6.83;;;2.10;93.60;;;;;;5019836;28;20221;-68
2022/03/08 08:38:58;;;;;;;11.70;7.67;;;2.20;93.60;;;;;;5024346;28;20227;-70
2022/03/08 08:41:23;;;;;;;12.97;8.80;;;2.30;93.60;;;;;;5030826;28;20478;-70
2022/03/08 08:43:49;;;;;;;12.50;8.80;;;2.30;93.70;;;;;;5008761;28;20464;-69
2022/03/08 08:46:15;;;;;;;8.13;6.80;;;2.40;93.80;;;;;;5021471;28;20693;-70
2022/03/08 08:48:40;;;;;;;9.67;6.60;;;2.50;94.00;;;;;;5013827;28;20219;-69
2022/03/08 08:51:06;;;;;;;9.90;6.13;;;2.60;94.00;;;;;;5007647;28;20311;-69
2022/03/08 08:53:32;;;;;;;10.60;6.20;;;2.70;93.60;;;;;;5010011;28;20270;-68
2022/03/08 08:55:58;;;;;;;7.83;5.57;;;2.80;94.10;;;;;;5018819;28;20225;-69
2022/03/08 08:58:23;;;;;;;9.30;6.00;;;2.90;93.90;;;;;;5011516;28;20208;-68
2022/03/08 09:00:49;;;;;;;7.77;4.93;;;3.00;93.90;;;;;;5010368;28;20258;-67
2022/03/08 09:03:16;;;;;;;10.20;6.60;;;3.00;93.70;;;;;;5006565;28;20302;-68
2022/03/08 09:05:45;;;;;;;9.93;6.90;;;3.10;93.50;;;;;;5003923;28;20220;-68
2022/03/08 09:08:11;;;;;;;12.00;5.37;;;3.10;93.30;;;;;;5027110;28;20549;-68
2022/03/08 09:10:37;;;;;;;8.93;5.70;;;3.20;93.80;;;;;;5022019;28;20472;-68
2022/03/08 09:13:05;;;;;;;9.30;5.60;;;3.30;94.00;;;;;;5003384;28;20487;-68
2022/03/08 09:15:31;;;;;;;9.53;6.27;;;3.40;93.20;;;;;;5010142;28;20454;-69
2022/03/08 09:17:57;;;;;;;9.07;6.30;;;3.60;93.70;;;;;;5006938;28;20533;-68
2022/03/08 09:20:25;;;;;;;7.43;5.80;;;3.60;93.40;;;;;;5026198;28;20467;-71
2022/03/08 09:22:53;;;;;;;5.50;4.83;;;3.70;93.10;;;;;;5023043;28;20239;-68
2022/03/08 09:25:18;;;;;;;8.67;6.20;;;3.70;93.30;;;;;;5019427;28;20539;-70
2022/03/08 09:27:45;;;;;;;7.23;4.93;;;3.90;93.20;;;;;;5009647;28;20546;-70
2022/03/08 09:30:11;;;;;;;10.10;5.40;;;3.90;93.10;;;;;;5039794;28;20220;-70
2022/03/08 09:32:37;;;;;;;7.67;4.33;;;3.90;92.90;;;;;;5019778;28;20551;-68
2022/03/08 09:35:03;;;;;;;9.07;6.03;;;4.00;92.90;;;;;;5022411;28;20566;-69
2022/03/08 09:37:29;;;;;;;8.90;4.93;;;4.10;92.90;;;;;;5020803;28;20224;-68
2022/03/08 09:39:55;;;;;;;7.77;5.33;;;4.20;92.80;;;;;;5018782;28;20460;-69
2022/03/08 09:42:21;;;;;;;11.03;6.10;;;4.30;93.10;;;;;;5021991;28;20220;-67
2022/03/08 09:44:48;;;;;;;8.10;5.40;;;4.40;93.00;;;;;;5033001;28;20228;-67
2022/03/08 09:47:15;;;;;;;7.97;6.40;;;4.40;93.00;;;;;;5021139;28;20482;-67
2022/03/08 09:49:41;;;;;;;7.77;6.20;;;4.60;92.80;;;;;;5027104;28;20459;-70
2022/03/08 09:52:08;;;;;;;10.63;6.00;;;4.70;93.00;;;;;;5012813;28;20474;-69
2022/03/08 09:54:34;;;;;;;6.80;5.17;;;4.70;92.80;;;;;;5024638;28;20459;-71
2022/03/08 09:57:06;;;;;;;6.80;5.00;;;4.70;92.60;;;;;;5013438;28;20455;-72
2022/03/08 09:59:32;;;;;;;8.93;6.13;;;4.80;92.30;;;;;;5022102;28;20483;-70
2022/03/08 10:01:57;;;;;;;7.40;5.50;;;4.80;92.00;;;;;;5009399;28;21070;-70
2022/03/08 10:04:23;;;;;;;8.50;5.10;;;4.80;92.00;;;;;;5023832;28;20327;-71
2022/03/08 10:06:50;;;;;;;6.53;5.50;;;4.90;92.20;;;;;;5009689;28;20296;-70
2022/03/08 10:09:18;;;;;;;8.23;5.10;;;5.00;92.20;;;;;;5023605;28;20216;-70
2022/03/08 10:11:44;;;;;;;8.80;5.67;;;5.10;92.20;;;;;;5003586;28;20469;-70
2022/03/08 10:14:26;;;;;;;7.33;5.40;;;5.30;92.20;;;;;;5009792;28;20869;-69
2022/03/08 10:16:53;;;;;;;8.33;5.70;;;5.30;91.90;;;;;;5007570;28;20221;-68
2022/03/08 10:19:19;;;;;;;6.33;5.43;;;5.40;91.90;;;;;;5027638;28;20540;-72
2022/03/08 10:21:51;;;;;;;6.87;4.67;;;5.40;91.70;;;;;;5028654;28;20460;-70
2022/03/08 10:24:21;;;;;;;6.57;4.67;;;5.40;91.70;;;;;;5021835;28;20471;-69
2022/03/08 10:26:49;;;;;;;6.33;4.67;;;5.70;92.00;;;;;;5025016;28;20440;-70
2022/03/08 10:29:36;;;;;;;8.60;5.77;;;5.80;91.20;;;;;;5026132;28;20478;-71
2022/03/08 10:32:07;;;;;;;8.20;5.53;;;5.90;91.70;;;;;;5017758;28;20459;-69
2022/03/08 10:34:34;;;;;;;7.37;5.43;;;6.10;91.50;;;;;;5019073;28;20464;-72
2022/03/08 10:37:14;;;;;;;7.63;5.57;;;6.30;91.30;;;;;;5030180;28;20955;-69
2022/03/08 10:39:52;;;;;;;9.40;6.30;;;6.40;90.90;;;;;;5024770;28;20459;-69
2022/03/08 10:42:26;;;;;;;9.30;5.67;;;6.40;90.60;;;;;;5025396;28;20498;-71
2022/03/08 10:45:04;;;;;;;10.50;5.50;;;6.40;90.80;;;;;;5026527;28;20458;-69
2022/03/08 10:47:40;;;;;;;10.67;6.37;;;6.30;90.30;;;;;;5024584;28;20550;-69
2022/03/08 10:50:07;;;;;;;7.80;6.70;;;6.30;90.50;;;;;;4991337;28;20472;-70
2022/03/08 10:52:37;;;;;;;9.37;6.40;;;6.50;90.70;;;;;;5006253;28;20476;-70
2022/03/08 10:55:09;;;;;;;7.70;5.37;;;6.70;90.60;;;;;;5001626;28;20475;-69
2022/03/08 10:57:37;;;;;;;8.20;5.83;;;6.80;90.60;;;;;;5027652;28;20455;-70
2022/03/08 11:00:09;;;;;;;7.90;5.40;;;6.90;90.80;;;;;;4999140;28;20448;-69
2022/03/08 11:02:45;;;;;;;8.60;5.70;;;7.10;90.30;;;;;;4994589;28;20530;-69
2022/03/08 11:05:11;;;;;;;7.40;5.10;;;7.20;90.40;;;;;;5019648;28;20516;-70
2022/03/08 11:07:37;;;;;;;10.03;5.27;;;7.20;90.00;;;;;;5010975;28;20839;-69
2022/03/08 11:10:09;;;;;;;7.57;5.43;;;7.40;90.10;;;;;;5010173;28;20494;-69
2022/03/08 11:12:37;;;;;;;7.23;5.40;;;7.40;89.50;;;;;;5009414;28;20495;-70
2022/03/08 11:15:04;;;;;;;8.30;5.60;;;7.30;89.10;;;;;;5011187;28;20521;-72
2022/03/08 11:17:33;;;;;;;7.20;4.97;;;7.50;89.20;;;;;;5011181;28;20538;-69
2022/03/08 11:20:01;;;;;;;6.03;5.00;;;7.70;89.40;;;;;;5023186;28;20475;-70
2022/03/08 11:22:28;;;;;;;6.30;4.90;;;7.70;89.30;;;;;;5006133;28;20854;-70
2022/03/08 11:24:54;;;;;;;6.13;5.40;;;7.70;89.90;;;;;;5024909;28;20571;-69
2022/03/08 11:27:20;;;;;;;6.40;4.40;;;7.90;89.70;;;;;;5008648;28;20451;-69
2022/03/08 11:29:46;;;;;;;4.60;4.20;;;8.10;89.10;;;;;;5024332;28;20464;-70
2022/03/08 11:32:33;;;;;;;7.60;5.47;;;8.20;88.70;;;;;;5010189;28;20223;-70
2022/03/08 11:35:06;;;;;;;8.13;4.70;;;8.40;87.60;;;;;;5000573;28;20220;-68
2022/03/08 11:37:35;;;;;;;6.07;4.87;;;8.50;87.80;;;;;;4978277;28;20472;-70
2022/03/08 11:40:04;;;;;;;6.53;4.80;;;8.50;86.70;;;;;;5016473;28;20975;-71
2022/03/08 11:42:32;;;;;;;8.00;4.70;;;8.20;86.00;;;;;;5014547;28;20491;-69
2022/03/08 11:45:01;;;;;;;6.10;4.67;;;8.20;86.50;;;;;;5009897;28;20456;-72
2022/03/08 11:47:39;;;;;;;4.80;4.40;;;8.10;84.90;;;;;;5007349;28;21045;-71
2022/03/08 11:50:06;;;;;;;7.03;3.97;;;8.20;85.40;;;;;;5009692;28;20474;-68
2022/03/08 11:52:36;;;;;;;4.53;3.63;;;8.40;85.80;;;;;;5018874;28;20460;-69
2022/03/08 11:55:03;;;;;;;5.77;4.37;;;8.50;85.80;;;;;;5022902;28;20491;-69
2022/03/08 11:57:44;;;;;;;5.83;4.17;;;8.70;84.90;;;;;;5020139;28;20463;-70
2022/03/08 12:00:16;;;;;;;6.37;4.07;;;9.00;82.00;;;;;;4989348;28;20468;-72
2022/03/08 12:02:52;;;;;;;5.43;4.20;;;9.30;81.90;;;;;;5014098;28;20479;-69
2022/03/08 12:05:56;;;;;;;5.17;3.57;;;9.40;81.90;;;;;;5005276;28;20463;-70
2022/03/08 12:08:21;;;;;;;4.73;3.90;;;9.50;81.70;;;;;;5014165;28;20491;-70
2022/03/08 12:10:48;;;;;;;5.50;3.77;;;9.20;79.60;;;;;;5004291;28;20555;-71
2022/03/08 12:13:15;;;;;;;4.00;3.60;;;9.10;79.10;;;;;;5009477;28;20315;-69
2022/03/08 12:16:09;;;;;;;6.23;3.77;;;9.10;81.20;;;;;;5027342;28;20514;-69
2022/03/08 12:18:58;;;;;;;5.20;4.10;;;9.20;82.30;;;;;;5005448;28;20470;-72
2022/03/08 12:21:23;;;;;;;10.67;5.00;;;9.20;81.00;;;;;;5018560;28;20464;-70
2022/03/08 12:23:53;;;;;;;6.97;4.30;;;9.00;79.90;;;;;;5021492;28;20451;-69
2022/03/08 12:26:45;;;;;;;7.63;3.50;;;8.90;79.80;;;;;;5005142;28;20219;-70
2022/03/08 12:29:14;;;;;;;7.83;4.20;;;8.90;79.30;;;;;;5002159;28;20487;-71
2022/03/08 12:31:58;;;;;;;7.10;4.53;;;8.80;78.80;;;;;;5008785;28;20468;-69
2022/03/08 12:34:35;;;;;;;9.90;5.07;;;8.60;78.60;;;;;;5022501;28;20482;-70
2022/03/08 12:37:24;;;;;;;6.53;4.60;;;8.60;78.30;;;;;;5024835;28;20458;-70
2022/03/08 12:40:06;;;;;;;12.73;5.43;;;8.70;78.80;;;;;;5023686;28;20464;-70
2022/03/08 12:42:38;;;;;;;8.23;5.60;;;8.80;78.90;;;;;;5016193;28;20841;-70
2022/03/08 12:45:21;;;;;;;7.07;4.83;;;9.10;76.30;;;;;;5031166;28;20851;-70
2022/03/08 12:47:53;;;;;;;5.63;4.10;;;9.20;78.30;;;;;;5011140;28;20455;-72
2022/03/08 12:50:23;;;;;;;11.97;4.57;;;9.20;78.70;;;;;;5027259;28;20463;-70
2022/03/08 12:53:08;;;;;;;9.83;5.30;;;9.20;77.00;;;;;;4999084;28;20483;-68
2022/03/08 12:55:33;;;;;;;10.47;5.50;;;9.40;77.70;;;;;;5021988;28;20533;-72